createdAt,value
2023-05-05T00:02:11.596Z,8.89
2023-05-05T00:05:38.812Z,8.82
2023-05-05T00:08:42.246Z,8.96
2023-05-05T00:12:05.582Z,8.64
2023-05-05T00:15:50.335Z,8.63
2023-05-05T00:19:14.266Z,8.79
2023-05-05T00:22:37.148Z,8.64
2023-05-05T00:25:44.531Z,8.63
2023-05-05T00:29:08.013Z,8.57
2023-05-05T00:33:11.216Z,8.28
2023-05-05T00:36:33.772Z,8.37
2023-05-05T00:39:56.937Z,8.35
2023-05-05T00:43:19.589Z,8.42
2023-05-05T00:47:14.324Z,8.35
2023-05-05T00:50:57.168Z,8.26
2023-05-05T00:54:22.820Z,8.23
2023-05-05T00:57:48.741Z,8.32
2023-05-05T01:01:39.884Z,8.25
2023-05-05T01:04:43.561Z,8.25
2023-05-05T01:08:32.477Z,8.10
2023-05-05T01:11:41.678Z,8.13
2023-05-05T01:15:14.890Z,8.18
2023-05-05T01:18:52.349Z,7.90
2023-05-05T01:22:27.094Z,7.73
2023-05-05T01:26:33.089Z,7.82
2023-05-05T01:30:22.786Z,8.04
2023-05-05T01:33:58.297Z,7.99
2023-05-05T01:37:14.105Z,7.84
2023-05-05T01:40:24.405Z,7.89
2023-05-05T01:44:29.050Z,7.96
2023-05-05T01:47:53.772Z,7.90
2023-05-05T01:51:57.802Z,7.92
2023-05-05T01:55:41.000Z,7.80
2023-05-05T01:59:05.648Z,7.74
2023-05-05T02:02:29.077Z,7.55
2023-05-05T02:06:09.740Z,7.59
2023-05-05T02:09:33.009Z,7.58
2023-05-05T02:13:36.926Z,7.52
2023-05-05T02:17:04.269Z,7.43
2023-05-05T02:20:47.507Z,7.42
2023-05-05T02:23:52.095Z,7.53
2023-05-05T02:27:10.805Z,7.51
2023-05-05T02:30:36.895Z,7.51
2023-05-05T02:34:07.412Z,7.38
2023-05-05T02:37:30.569Z,7.42
2023-05-05T02:41:18.594Z,7.36
2023-05-05T02:44:44.166Z,7.38
2023-05-05T02:48:04.251Z,7.48
2023-05-05T02:51:27.798Z,7.43
2023-05-05T02:55:47.651Z,7.39
2023-05-05T02:59:33.993Z,7.45
2023-05-05T03:02:52.044Z,7.23
2023-05-05T06:29:12.317Z,18.26
2023-05-05T06:32:20.410Z,16.64
2023-05-05T06:35:23.330Z,18.05
2023-05-05T06:38:27.970Z,17.20
2023-05-05T06:41:31.391Z,17.73
2023-05-05T06:44:42.533Z,18.79
2023-05-05T06:47:45.272Z,18.74
2023-05-05T06:50:49.341Z,18.67
2023-05-05T06:53:53.035Z,19.33
2023-05-05T06:57:06.506Z,18.77
2023-05-05T07:00:17.864Z,20.14
2023-05-05T07:03:25.536Z,20.23
2023-05-05T07:06:38.222Z,20.03
2023-05-05T07:09:41.696Z,20.48
2023-05-05T07:12:44.503Z,19.91
2023-05-05T07:15:52.326Z,21.45
2023-05-05T07:19:00.905Z,20.37
2023-05-05T07:22:12.454Z,22.30
2023-05-05T07:25:19.208Z,20.23
2023-05-05T07:28:26.865Z,21.64
2023-05-05T07:31:33.339Z,22.91
2023-05-05T07:34:38.025Z,22.93
2023-05-05T07:37:46.076Z,19.11
2023-05-05T07:40:49.058Z,21.76
2023-05-05T07:43:51.867Z,21.24
2023-05-05T07:46:54.829Z,20.36
2023-05-05T07:50:02.258Z,20.49
2023-05-05T07:53:16.079Z,20.02
2023-05-05T07:56:20.471Z,21.10
2023-05-05T07:59:24.951Z,21.21
2023-05-05T08:02:27.712Z,20.38
2023-05-05T08:05:34.829Z,19.69
2023-05-05T08:08:37.989Z,21.61
2023-05-05T08:11:42.174Z,22.22
2023-05-05T08:14:45.332Z,21.23
2023-05-05T08:17:50.888Z,20.69
2023-05-05T08:20:54.740Z,20.65
2023-05-05T08:24:02.131Z,20.49
2023-05-05T08:27:05.888Z,21.15
2023-05-05T08:30:10.912Z,20.99
2023-05-05T08:33:18.274Z,21.21
2023-05-05T08:36:23.648Z,20.82
2023-05-05T08:39:47.444Z,21.79
2023-05-05T08:42:50.640Z,21.78
2023-05-05T08:45:56.357Z,21.46
2023-05-05T08:49:03.374Z,21.92
2023-05-05T08:52:10.436Z,21.84
2023-05-05T08:55:24.550Z,21.78
2023-05-05T08:58:30.578Z,19.84
2023-05-05T09:01:36.252Z,21.85
2023-05-05T09:04:39.623Z,21.07
2023-05-05T09:07:44.101Z,21.16
2023-05-05T09:10:49.132Z,20.17
2023-05-05T09:13:52.178Z,21.00
2023-05-05T09:16:55.059Z,21.77
2023-05-05T09:20:02.556Z,21.82
2023-05-05T09:23:12.402Z,21.34
2023-05-05T09:26:15.722Z,20.14
2023-05-05T10:54:38.331Z,23.03
2023-05-05T10:57:45.540Z,22.97
2023-05-05T11:00:50.318Z,22.59
2023-05-05T11:04:16.843Z,23.68
2023-05-05T11:07:23.778Z,23.64
2023-05-05T11:10:26.895Z,22.57
2023-05-05T11:13:30.179Z,23.24
2023-05-05T11:16:47.828Z,23.22
2023-05-05T11:19:52.295Z,22.75
2023-05-05T11:23:05.355Z,23.07
2023-05-05T11:26:09.011Z,23.40
2023-05-05T11:29:12.069Z,23.05
2023-05-05T11:32:16.052Z,23.33
2023-05-05T11:36:01.333Z,23.05
2023-05-05T11:39:12.922Z,23.68
2023-05-05T11:42:28.160Z,23.60
2023-05-05T11:45:31.151Z,23.90
2023-05-05T11:48:47.204Z,23.25
2023-05-05T11:52:04.834Z,23.60
2023-05-05T11:55:08.301Z,23.43
2023-05-05T11:58:21.073Z,23.83
2023-05-05T12:01:24.112Z,23.87
2023-05-05T12:04:27.408Z,23.78
2023-05-05T12:07:31.803Z,23.25
2023-05-05T12:10:34.831Z,23.29
2023-05-05T12:13:37.832Z,23.03
2023-05-05T12:16:41.059Z,23.20
2023-05-05T12:19:49.286Z,23.45
2023-05-05T12:22:59.832Z,23.71
2023-05-05T12:26:02.852Z,23.51
2023-05-05T12:29:05.934Z,23.70
2023-05-05T12:32:18.958Z,23.91
2023-05-05T12:35:22.546Z,23.43
2023-05-05T12:38:25.396Z,23.48
2023-05-05T12:41:28.651Z,23.87
2023-05-05T12:44:36.470Z,24.05
2023-05-05T12:47:44.037Z,24.08
2023-05-05T12:50:46.872Z,23.59
2023-05-05T12:54:02.190Z,23.68
2023-05-05T12:57:11.520Z,23.65
2023-05-05T13:00:16.709Z,22.99
2023-05-05T13:03:20.314Z,23.26
2023-05-05T13:06:27.805Z,23.36
2023-05-05T13:09:30.780Z,23.62
2023-05-05T13:12:34.118Z,23.87
2023-05-05T13:15:36.792Z,23.65
2023-05-05T13:18:47.038Z,23.99
2023-05-05T13:21:50.048Z,23.45
2023-05-05T13:24:53.113Z,23.70
2023-05-05T13:27:55.762Z,22.79
2023-05-05T13:30:58.817Z,22.98
2023-05-05T13:34:03.038Z,22.77
2023-05-05T13:37:06.590Z,23.22
2023-05-05T13:40:10.878Z,23.47
2023-05-05T13:43:14.015Z,23.33
2023-05-05T13:46:20.110Z,23.30
2023-05-05T13:49:23.877Z,22.81
2023-05-05T13:52:46.533Z,22.91
2023-05-05T13:55:49.719Z,22.96
2023-05-05T13:58:52.397Z,22.39
2023-05-05T14:01:56.040Z,22.18
2023-05-05T14:05:00.046Z,22.41
2023-05-05T14:08:03.021Z,22.44
2023-05-05T14:11:06.162Z,22.55
2023-05-05T14:14:09.422Z,22.46
2023-05-05T14:17:12.900Z,22.15
2023-05-05T14:20:16.282Z,22.35
2023-05-05T14:23:19.380Z,22.27
2023-05-05T14:26:22.190Z,22.37
2023-05-05T14:29:25.723Z,22.51
2023-05-05T14:32:30.431Z,22.18
2023-05-05T14:35:33.463Z,21.88
2023-05-05T14:38:36.955Z,21.84
2023-05-05T14:41:40.186Z,21.87
2023-05-05T14:44:44.858Z,22.19
2023-05-05T14:47:48.548Z,22.48
2023-05-05T14:50:51.286Z,22.44
2023-05-05T14:53:54.609Z,22.59
2023-05-05T14:56:58.425Z,22.24
2023-05-05T15:00:21.659Z,22.28
2023-05-05T15:03:24.779Z,22.44
2023-05-05T15:06:28.551Z,22.31
2023-05-05T15:09:33.510Z,22.51
2023-05-05T15:12:43.138Z,22.43
2023-05-05T15:15:46.385Z,22.33
2023-05-05T15:18:49.530Z,22.27
2023-05-05T15:21:54.186Z,22.18
2023-05-05T15:24:58.029Z,22.38
2023-05-05T15:28:01.081Z,21.76
2023-05-05T15:31:06.343Z,21.86
2023-05-05T15:34:09.685Z,22.00
2023-05-05T15:37:29.057Z,21.88
2023-05-05T15:40:33.559Z,21.81
2023-05-05T15:43:41.915Z,21.62
2023-05-05T15:46:46.222Z,21.23
2023-05-05T15:49:50.021Z,20.86
2023-05-05T15:53:16.658Z,21.44
2023-05-05T15:56:29.576Z,21.44
2023-05-05T15:59:32.448Z,21.23
2023-05-05T16:02:36.446Z,21.24
2023-05-05T16:05:39.483Z,21.17
2023-05-05T16:08:42.247Z,21.15
2023-05-05T16:11:45.374Z,21.00
2023-05-05T16:14:48.293Z,21.00
2023-05-05T16:17:51.559Z,21.05
2023-05-05T16:20:59.585Z,21.08
2023-05-05T16:24:02.919Z,21.10
2023-05-05T16:27:05.665Z,21.19
2023-05-05T16:30:10.335Z,21.09
2023-05-05T16:33:17.077Z,20.93
2023-05-05T16:36:40.092Z,20.89
2023-05-05T16:39:42.798Z,20.90
2023-05-05T16:42:46.392Z,20.92
2023-05-05T16:46:06.818Z,20.77
2023-05-05T16:49:10.511Z,21.26
2023-05-05T16:52:13.371Z,20.87
2023-05-05T16:55:16.436Z,20.75
2023-05-05T16:58:20.414Z,20.67
2023-05-05T17:01:23.976Z,20.54
2023-05-05T17:04:27.633Z,20.43
2023-05-05T17:07:32.868Z,20.32
2023-05-05T17:10:35.854Z,20.27
2023-05-05T17:13:39.670Z,20.15
2023-05-05T17:16:42.698Z,20.00
2023-05-05T17:19:46.394Z,19.94
2023-05-05T17:22:50.085Z,19.87
2023-05-05T17:26:13.221Z,19.81
2023-05-05T17:29:21.656Z,19.70
2023-05-05T17:32:26.153Z,19.59
2023-05-05T17:35:29.836Z,19.30
2023-05-05T17:38:33.666Z,19.15
2023-05-05T17:41:37.453Z,18.83
2023-05-05T17:44:40.760Z,18.62
2023-05-05T17:47:43.528Z,18.42
2023-05-05T17:51:27.485Z,18.17
2023-05-05T17:54:48.830Z,18.11
2023-05-05T17:57:51.857Z,17.90
2023-05-05T18:01:23.258Z,17.64
2023-05-05T18:05:06.508Z,17.38
2023-05-05T18:08:14.153Z,17.20
2023-05-05T18:11:17.580Z,17.09
2023-05-05T18:14:40.198Z,16.94
2023-05-05T18:18:03.616Z,16.70
2023-05-05T19:13:41.067Z,14.32
2023-05-05T19:16:48.565Z,14.11
2023-05-05T19:19:51.779Z,14.05
2023-05-05T19:22:55.825Z,13.89
2023-05-05T19:25:59.617Z,13.86
2023-05-05T19:29:32.116Z,13.65
2023-05-05T19:32:54.799Z,13.67
2023-05-05T19:36:19.312Z,13.65
2023-05-05T19:39:22.270Z,13.67
2023-05-05T19:42:26.235Z,13.44
2023-05-05T19:45:53.359Z,13.45
2023-05-05T19:48:57.180Z,13.30
2023-05-05T19:52:00.344Z,13.27
2023-05-05T19:55:46.791Z,13.19
2023-05-05T19:58:59.263Z,13.12
2023-05-05T20:02:27.363Z,12.88
2023-05-05T20:05:49.777Z,12.93
2023-05-05T20:08:56.205Z,12.79
2023-05-05T20:12:55.353Z,12.72
2023-05-05T20:16:18.582Z,12.60
2023-05-05T20:19:22.922Z,12.63
2023-05-05T20:22:41.803Z,12.65
2023-05-05T20:25:44.945Z,12.57
2023-05-05T20:28:51.372Z,12.57
2023-05-05T20:31:55.832Z,12.44
2023-05-05T20:35:34.589Z,12.30
2023-05-05T20:38:58.556Z,12.20
2023-05-05T20:42:02.795Z,12.11
2023-05-05T20:45:08.216Z,12.03
2023-05-05T20:48:31.944Z,12.08
2023-05-05T20:51:55.062Z,11.99
2023-05-05T20:54:58.312Z,11.74
2023-05-05T20:58:03.457Z,11.69
2023-05-05T21:01:07.045Z,11.44
2023-05-05T21:04:13.876Z,11.44
2023-05-05T21:07:36.883Z,11.52
2023-05-05T21:10:44.529Z,11.67
